createdAt,value
2019-01-12T00:00:52.798Z,1017.35
2019-01-12T00:01:52.775Z,1017.39
2019-01-12T00:02:52.763Z,1017.37
2019-01-12T00:03:52.752Z,1017.36
2019-01-12T00:04:52.766Z,1017.36
2019-01-12T00:05:52.729Z,1017.39
2019-01-12T00:06:52.720Z,1017.37
2019-01-12T00:07:52.708Z,1017.42
2019-01-12T00:08:52.699Z,1017.35
2019-01-12T00:09:52.710Z,1017.38
2019-01-12T00:10:52.673Z,1017.34
2019-01-12T00:11:52.665Z,1017.34
2019-01-12T00:12:52.651Z,1017.36
2019-01-12T00:13:52.642Z,1017.30
2019-01-12T00:14:52.659Z,1017.32
2019-01-12T00:15:52.621Z,1017.34
2019-01-12T00:16:52.608Z,1017.34
2019-01-12T00:17:52.597Z,1017.37
2019-01-12T00:18:52.585Z,1017.37
2019-01-12T00:19:52.598Z,1017.39
2019-01-12T00:20:52.563Z,1017.36
2019-01-12T00:21:52.550Z,1017.35
2019-01-12T00:22:52.539Z,1017.34
2019-01-12T00:23:52.530Z,1017.35
2019-01-12T00:24:52.540Z,1017.27
2019-01-12T00:25:52.508Z,1017.29
2019-01-12T00:26:52.495Z,1017.28
2019-01-12T00:27:52.483Z,1017.32
2019-01-12T00:28:52.473Z,1017.31
2019-01-12T00:29:52.485Z,1017.31
2019-01-12T00:30:52.449Z,1017.33
2019-01-12T00:31:52.440Z,1017.33
2019-01-12T00:32:52.428Z,1017.37
2019-01-12T00:33:52.417Z,1017.32
2019-01-12T00:34:52.428Z,1017.31
2019-01-12T00:35:52.396Z,1017.29
2019-01-12T00:36:52.383Z,1017.35
2019-01-12T00:37:52.370Z,1017.27
2019-01-12T00:38:52.361Z,1017.31
2019-01-12T00:39:52.350Z,1017.26
2019-01-12T00:40:52.362Z,1017.29
2019-01-12T00:41:52.330Z,1017.28
2019-01-12T00:42:52.315Z,1017.21
2019-01-12T00:43:52.304Z,1017.27
2019-01-12T00:44:52.296Z,1017.28
2019-01-12T00:45:52.322Z,1017.26
2019-01-12T00:46:52.270Z,1017.21
2019-01-12T00:47:52.259Z,1017.29
2019-01-12T00:48:52.249Z,1017.27
2019-01-12T00:49:52.236Z,1017.34
2019-01-12T00:50:52.251Z,1017.25
2019-01-12T00:51:52.218Z,1017.34
2019-01-12T00:52:52.202Z,1017.29
2019-01-12T00:53:52.192Z,1017.26
2019-01-12T00:54:52.182Z,1017.30
2019-01-12T00:55:52.194Z,1017.26
2019-01-12T00:56:52.162Z,1017.27
2019-01-12T00:57:52.153Z,1017.26
2019-01-12T00:58:52.135Z,1017.32
2019-01-12T00:59:52.123Z,1017.25
2019-01-12T01:00:52.137Z,1017.24
2019-01-12T01:01:52.102Z,1017.31
2019-01-12T01:02:52.092Z,1017.26
2019-01-12T01:03:52.079Z,1017.28
2019-01-12T01:04:52.069Z,1017.25
2019-01-12T01:05:52.079Z,1017.31
2019-01-12T01:06:52.046Z,1017.24
2019-01-12T01:07:52.040Z,1017.30
2019-01-12T01:08:52.023Z,1017.26
2019-01-12T01:09:52.013Z,1017.30
2019-01-12T01:10:52.026Z,1017.27
2019-01-12T01:11:51.992Z,1017.31
2019-01-12T01:12:51.981Z,1017.30
2019-01-12T01:13:51.967Z,1017.24
2019-01-12T01:14:51.956Z,1017.29
2019-01-12T01:15:51.970Z,1017.29
2019-01-12T01:16:51.934Z,1017.29
2019-01-12T01:17:51.924Z,1017.26
2019-01-12T01:18:51.911Z,1017.24
2019-01-12T01:19:51.900Z,1017.32
2019-01-12T01:20:51.917Z,1017.32
2019-01-12T01:21:51.897Z,1017.35
2019-01-12T01:22:51.867Z,1017.33
2019-01-12T01:23:51.856Z,1017.30
2019-01-12T01:24:51.845Z,1017.28
2019-01-12T01:25:51.836Z,1017.31
2019-01-12T01:26:51.845Z,1017.28
2019-01-12T01:27:51.810Z,1017.29
2019-01-12T01:28:51.803Z,1017.34
2019-01-12T01:29:51.788Z,1017.32
2019-01-12T01:30:51.777Z,1017.30
2019-01-12T01:31:51.790Z,1017.27
2019-01-12T01:32:51.755Z,1017.28
2019-01-12T01:33:51.743Z,1017.28
2019-01-12T01:34:51.731Z,1017.31
2019-01-12T01:35:51.722Z,1017.36
2019-01-12T01:36:51.733Z,1017.34
2019-01-12T01:37:51.704Z,1017.32
2019-01-12T01:38:51.687Z,1017.33
2019-01-12T01:39:51.675Z,1017.35
2019-01-12T01:40:51.664Z,1017.41
2019-01-12T01:41:51.677Z,1017.35
2019-01-12T01:42:51.643Z,1017.39
2019-01-12T01:43:51.634Z,1017.36
2019-01-12T01:44:51.621Z,1017.35
2019-01-12T01:45:51.607Z,1017.34
2019-01-12T01:46:51.623Z,1017.39
2019-01-12T01:47:51.587Z,1017.39
2019-01-12T01:48:51.576Z,1017.40
2019-01-12T01:49:51.564Z,1017.37
2019-01-12T01:50:51.551Z,1017.36
2019-01-12T01:51:51.566Z,1017.39
2019-01-12T01:52:51.530Z,1017.38
2019-01-12T01:53:51.519Z,1017.34
2019-01-12T01:54:52.974Z,1017.41
2019-01-12T01:55:51.498Z,1017.40
2019-01-12T01:56:51.510Z,1017.38
2019-01-12T01:57:51.474Z,1017.38
2019-01-12T01:58:51.463Z,1017.45
2019-01-12T01:59:51.451Z,1017.42
2019-01-12T02:00:51.441Z,1017.38
2019-01-12T02:01:51.454Z,1017.36
2019-01-12T02:02:51.417Z,1017.33
2019-01-12T02:03:51.406Z,1017.40
2019-01-12T02:04:51.395Z,1017.35
2019-01-12T02:05:51.384Z,1017.38
2019-01-12T02:06:51.398Z,1017.35
2019-01-12T02:07:51.360Z,1017.35
2019-01-12T02:08:51.350Z,1017.33
2019-01-12T02:09:51.339Z,1017.38
2019-01-12T02:10:51.327Z,1017.32
2019-01-12T02:11:51.343Z,1017.31
2019-01-12T02:12:51.305Z,1017.34
2019-01-12T02:13:51.294Z,1017.30
2019-01-12T02:14:51.284Z,1017.28
2019-01-12T02:15:51.273Z,1017.27
2019-01-12T02:16:51.285Z,1017.25
2019-01-12T02:17:51.249Z,1017.18
2019-01-12T02:18:51.238Z,1017.17
2019-01-12T02:19:51.226Z,1017.21
2019-01-12T02:20:51.215Z,1017.22
2019-01-12T02:21:51.227Z,1017.20
2019-01-12T02:22:51.194Z,1017.16
2019-01-12T02:23:51.183Z,1017.16
2019-01-12T02:24:51.173Z,1017.18
2019-01-12T02:25:51.159Z,1017.17
2019-01-12T02:26:51.149Z,1017.26
2019-01-12T02:27:51.166Z,1017.27
2019-01-12T02:28:51.124Z,1017.25
2019-01-12T02:29:51.114Z,1017.31
2019-01-12T02:30:51.104Z,1017.31
2019-01-12T02:31:51.096Z,1017.30
2019-01-12T02:32:51.107Z,1017.27
2019-01-12T02:33:51.070Z,1017.31
2019-01-12T02:34:51.059Z,1017.25
2019-01-12T02:35:51.047Z,1017.29
2019-01-12T02:36:51.040Z,1017.27
2019-01-12T02:37:51.049Z,1017.19
2019-01-12T02:38:51.021Z,1017.22
2019-01-12T02:39:51.063Z,1017.19
2019-01-12T02:40:50.991Z,1017.16
2019-01-12T02:41:50.982Z,1017.21
2019-01-12T02:42:50.994Z,1017.15
2019-01-12T02:43:50.961Z,1017.15
2019-01-12T02:44:50.948Z,1017.20
2019-01-12T02:45:50.934Z,1017.19
2019-01-12T02:46:50.926Z,1017.17
2019-01-12T02:47:50.937Z,1017.15
2019-01-12T02:48:50.905Z,1017.15
2019-01-12T02:49:50.890Z,1017.13
2019-01-12T02:50:50.881Z,1017.12
2019-01-12T02:51:50.868Z,1017.14
2019-01-12T02:52:50.880Z,1017.07
2019-01-12T02:53:50.847Z,1017.08
2019-01-12T02:54:50.836Z,1017.07
2019-01-12T02:55:50.822Z,1016.99
2019-01-12T02:56:50.812Z,1017.08
2019-01-12T02:57:50.825Z,1017.07
2019-01-12T02:58:50.789Z,1017.08
2019-01-12T02:59:50.778Z,1017.07
2019-01-12T03:00:50.766Z,1017.02
2019-01-12T03:01:50.762Z,1017.03
2019-01-12T03:02:50.768Z,1017.01
2019-01-12T03:03:50.731Z,1017.03
2019-01-12T03:04:50.721Z,1017.03
2019-01-12T03:05:50.717Z,1016.98
2019-01-12T03:06:50.698Z,1017.03
2019-01-12T03:07:50.710Z,1017.03
2019-01-12T03:08:50.678Z,1017.02
2019-01-12T03:09:50.665Z,1016.95
2019-01-12T03:10:50.656Z,1016.94
2019-01-12T03:11:50.642Z,1016.94
2019-01-12T03:12:50.661Z,1016.99
2019-01-12T03:13:50.619Z,1016.96
2019-01-12T03:14:50.618Z,1016.99
2019-01-12T03:15:50.601Z,1016.93
2019-01-12T03:16:50.589Z,1016.95
2019-01-12T03:17:50.578Z,1016.93
2019-01-12T03:18:50.589Z,1016.91
2019-01-12T03:19:50.554Z,1016.92
2019-01-12T03:20:50.541Z,1016.91
2019-01-12T03:21:50.530Z,1016.88
2019-01-12T03:22:50.522Z,1016.92
2019-01-12T03:23:50.531Z,1016.90
2019-01-12T03:24:50.495Z,1016.88
2019-01-12T03:25:50.485Z,1016.88
2019-01-12T03:26:50.475Z,1016.83
2019-01-12T03:27:50.468Z,1016.80
2019-01-12T03:28:50.476Z,1016.81
2019-01-12T03:29:50.442Z,1016.83
2019-01-12T03:30:50.434Z,1016.78
2019-01-12T03:31:50.419Z,1016.82
2019-01-12T03:32:50.526Z,1016.72
2019-01-12T03:33:50.418Z,1016.83
2019-01-12T03:34:50.383Z,1016.75
2019-01-12T03:35:50.373Z,1016.77
2019-01-12T03:36:50.363Z,1016.76
2019-01-12T03:37:50.381Z,1016.72
2019-01-12T03:38:50.366Z,1016.72
2019-01-12T03:39:50.328Z,1016.74
2019-01-12T03:40:50.316Z,1016.73
2019-01-12T03:41:50.309Z,1016.68
2019-01-12T03:42:50.300Z,1016.71
2019-01-12T03:43:50.305Z,1016.67
2019-01-12T03:44:50.272Z,1016.63
2019-01-12T03:45:50.260Z,1016.70
2019-01-12T03:46:50.248Z,1016.67
2019-01-12T03:47:50.239Z,1016.68
2019-01-12T03:48:50.251Z,1016.68
2019-01-12T03:49:50.217Z,1016.64
2019-01-12T03:50:50.218Z,1016.62
2019-01-12T03:51:50.192Z,1016.68
2019-01-12T03:52:50.183Z,1016.61
2019-01-12T03:53:50.196Z,1016.65
2019-01-12T03:54:50.158Z,1016.68
2019-01-12T03:55:50.148Z,1016.62
2019-01-12T03:56:50.135Z,1016.63
2019-01-12T03:57:50.124Z,1016.70
2019-01-12T03:58:50.140Z,1016.65
2019-01-12T03:59:50.102Z,1016.63
2019-01-12T04:00:50.129Z,1016.65
2019-01-12T04:01:50.081Z,1016.63
2019-01-12T04:02:50.069Z,1016.57
2019-01-12T04:03:50.084Z,1016.59
2019-01-12T04:04:50.045Z,1016.58
2019-01-12T04:05:50.034Z,1016.61
2019-01-12T04:06:50.023Z,1016.55
2019-01-12T04:07:50.011Z,1016.54
2019-01-12T04:08:50.025Z,1016.50
2019-01-12T04:09:49.992Z,1016.50
2019-01-12T04:10:49.977Z,1016.46
2019-01-12T04:11:49.969Z,1016.44
2019-01-12T04:12:49.955Z,1016.48
2019-01-12T04:13:49.947Z,1016.46
2019-01-12T04:14:49.957Z,1016.52
2019-01-12T04:15:49.924Z,1016.54
2019-01-12T04:16:49.911Z,1016.53
2019-01-12T04:17:49.900Z,1016.55
2019-01-12T04:18:49.891Z,1016.57
2019-01-12T04:19:49.900Z,1016.55
2019-01-12T04:20:49.873Z,1016.52
2019-01-12T04:21:49.855Z,1016.53
2019-01-12T04:22:49.844Z,1016.54
2019-01-12T04:23:49.831Z,1016.51
2019-01-12T04:24:49.845Z,1016.49
2019-01-12T04:25:49.811Z,1016.50
2019-01-12T04:26:49.799Z,1016.54
2019-01-12T04:27:49.788Z,1016.42
2019-01-12T04:28:49.778Z,1016.46
2019-01-12T04:29:49.790Z,1016.45
2019-01-12T04:30:49.756Z,1016.44
2019-01-12T04:31:49.745Z,1016.44
2019-01-12T04:32:49.734Z,1016.44
2019-01-12T04:33:49.720Z,1016.40
2019-01-12T04:34:49.739Z,1016.38
2019-01-12T04:35:49.705Z,1016.38
2019-01-12T04:36:49.686Z,1016.39
2019-01-12T04:37:49.678Z,1016.33
2019-01-12T04:38:49.692Z,1016.36
2019-01-12T04:39:49.678Z,1016.37
2019-01-12T04:40:49.640Z,1016.36
2019-01-12T04:41:49.631Z,1016.39
2019-01-12T04:42:49.620Z,1016.34
2019-01-12T04:43:49.608Z,1016.39
2019-01-12T04:44:49.622Z,1016.34
2019-01-12T04:45:49.585Z,1016.32
2019-01-12T04:46:49.576Z,1016.35
2019-01-12T04:47:49.563Z,1016.35
2019-01-12T04:48:49.553Z,1016.35
2019-01-12T04:49:49.566Z,1016.32
2019-01-12T04:50:49.530Z,1016.33
2019-01-12T04:51:49.582Z,1016.34
2019-01-12T04:52:49.519Z,1016.29
2019-01-12T04:53:49.497Z,1016.30
2019-01-12T04:54:49.508Z,1016.31
2019-01-12T04:55:49.475Z,1016.29
2019-01-12T04:56:49.462Z,1016.26
2019-01-12T04:57:49.460Z,1016.23
2019-01-12T04:58:49.441Z,1016.28
2019-01-12T04:59:49.453Z,1016.25
2019-01-12T05:00:49.422Z,1016.22
2019-01-12T05:01:49.406Z,1016.28
2019-01-12T05:02:49.397Z,1016.32
2019-01-12T05:03:49.384Z,1016.28
2019-01-12T05:04:49.379Z,1016.28
2019-01-12T05:05:49.385Z,1016.30
2019-01-12T05:06:49.370Z,1016.34
2019-01-12T05:07:49.341Z,1016.27
2019-01-12T05:08:49.345Z,1016.24
2019-01-12T05:09:49.318Z,1016.29
2019-01-12T05:10:49.360Z,1016.29
2019-01-12T05:11:49.294Z,1016.28
2019-01-12T05:12:49.302Z,1016.28
2019-01-12T05:13:49.270Z,1016.26
2019-01-12T05:14:49.263Z,1016.30
2019-01-12T05:15:49.273Z,1016.29
2019-01-12T05:16:49.238Z,1016.33
2019-01-12T05:17:49.226Z,1016.33
2019-01-12T05:18:49.215Z,1016.34
2019-01-12T05:19:49.203Z,1016.28
2019-01-12T05:20:49.272Z,1016.29
2019-01-12T05:21:49.186Z,1016.32
2019-01-12T05:22:49.173Z,1016.33
2019-01-12T05:23:49.159Z,1016.33
2019-01-12T05:24:49.148Z,1016.31
2019-01-12T05:25:49.495Z,1016.31
2019-01-12T05:26:49.173Z,1016.29
2019-01-12T05:27:49.115Z,1016.30
2019-01-12T05:28:49.107Z,1016.35
2019-01-12T05:29:49.094Z,1016.39
2019-01-12T05:30:49.104Z,1016.38
2019-01-12T05:31:49.068Z,1016.37
2019-01-12T05:32:49.059Z,1016.35
2019-01-12T05:33:49.045Z,1016.44
2019-01-12T05:34:49.036Z,1016.36
2019-01-12T05:35:49.049Z,1016.46
2019-01-12T05:36:49.014Z,1016.35
2019-01-12T05:37:49.004Z,1016.40
2019-01-12T05:38:48.990Z,1016.34
2019-01-12T05:39:48.984Z,1016.35
2019-01-12T05:40:49.007Z,1016.37
2019-01-12T05:41:48.957Z,1016.38
2019-01-12T05:42:48.944Z,1016.40
2019-01-12T05:43:48.933Z,1016.38
2019-01-12T05:44:48.922Z,1016.41
2019-01-12T05:45:48.938Z,1016.40
2019-01-12T05:46:48.901Z,1016.40
2019-01-12T05:47:48.889Z,1016.43
2019-01-12T05:48:48.880Z,1016.40
2019-01-12T05:49:48.866Z,1016.44
2019-01-12T05:50:48.879Z,1016.44
2019-01-12T05:51:48.844Z,1016.44
2019-01-12T05:52:48.832Z,1016.44
2019-01-12T05:53:48.822Z,1016.43
2019-01-12T05:54:48.811Z,1016.41
2019-01-12T05:55:56.606Z,1016.42
2019-01-12T05:56:49.788Z,1016.38
2019-01-12T05:57:48.778Z,1016.44
2019-01-12T05:58:48.767Z,1016.49
2019-01-12T05:59:48.755Z,1016.51
2019-01-12T06:00:48.768Z,1016.49
2019-01-12T06:01:48.736Z,1016.50
2019-01-12T06:02:48.721Z,1016.47
2019-01-12T06:03:48.709Z,1016.46
2019-01-12T06:04:48.697Z,1016.52
2019-01-12T06:05:48.690Z,1016.48
2019-01-12T06:06:48.700Z,1016.53
2019-01-12T06:07:48.664Z,1016.46
2019-01-12T06:08:48.653Z,1016.50
2019-01-12T06:09:48.643Z,1016.48
2019-01-12T06:10:48.631Z,1016.50
2019-01-12T06:11:48.644Z,1016.55
2019-01-12T06:12:48.608Z,1016.48
2019-01-12T06:13:48.598Z,1016.45
2019-01-12T06:14:48.590Z,1016.55
2019-01-12T06:15:48.575Z,1016.49
2019-01-12T06:16:48.589Z,1016.45
2019-01-12T06:17:48.555Z,1016.44
2019-01-12T06:18:48.543Z,1016.43
2019-01-12T06:19:48.534Z,1016.50
2019-01-12T06:20:48.519Z,1016.43
2019-01-12T06:21:48.537Z,1016.46
2019-01-12T06:22:48.495Z,1016.44
2019-01-12T06:23:48.487Z,1016.43
2019-01-12T06:24:48.474Z,1016.45
2019-01-12T06:25:48.464Z,1016.46
2019-01-12T06:26:48.475Z,1016.42
2019-01-12T06:27:48.439Z,1016.47
2019-01-12T06:28:48.430Z,1016.47
2019-01-12T06:29:48.421Z,1016.48
2019-01-12T06:30:48.407Z,1016.45
2019-01-12T06:31:48.420Z,1016.45
2019-01-12T06:32:48.385Z,1016.48
2019-01-12T06:33:48.374Z,1016.48
2019-01-12T06:34:48.362Z,1016.42
2019-01-12T06:35:48.352Z,1016.44
2019-01-12T06:36:48.372Z,1016.48
2019-01-12T06:37:48.331Z,1016.45
2019-01-12T06:38:48.318Z,1016.42
2019-01-12T06:39:48.305Z,1016.45
2019-01-12T06:40:48.294Z,1016.41
2019-01-12T06:41:48.308Z,1016.41
2019-01-12T06:42:48.275Z,1016.43
2019-01-12T06:43:48.261Z,1016.40
2019-01-12T06:44:48.250Z,1016.40
2019-01-12T06:45:48.239Z,1016.44
2019-01-12T06:46:48.253Z,1016.37
2019-01-12T06:47:48.219Z,1016.38
2019-01-12T06:48:48.206Z,1016.38
2019-01-12T06:49:48.193Z,1016.38
2019-01-12T06:50:48.184Z,1016.38
2019-01-12T06:51:48.197Z,1016.37
2019-01-12T06:52:48.163Z,1016.33
2019-01-12T06:53:48.150Z,1016.38
2019-01-12T06:54:48.138Z,1016.30
2019-01-12T06:55:48.129Z,1016.35
2019-01-12T06:56:48.318Z,1016.33
2019-01-12T06:57:48.110Z,1016.32
2019-01-12T06:58:48.098Z,1016.32
2019-01-12T06:59:48.086Z,1016.32
2019-01-12T07:00:48.072Z,1016.31
2019-01-12T07:01:48.060Z,1016.33
2019-01-12T07:02:48.073Z,1016.29
2019-01-12T07:03:48.038Z,1016.28
2019-01-12T07:04:48.026Z,1016.29
2019-01-12T07:05:48.016Z,1016.20
2019-01-12T07:06:48.004Z,1016.27
2019-01-12T07:07:48.017Z,1016.26
2019-01-12T07:08:47.985Z,1016.24
2019-01-12T07:09:47.971Z,1016.22
2019-01-12T07:10:47.969Z,1016.23
2019-01-12T07:11:47.950Z,1016.15
2019-01-12T07:12:47.962Z,1016.18
2019-01-12T07:13:47.926Z,1016.13
2019-01-12T07:14:47.914Z,1016.14
2019-01-12T07:15:47.904Z,1016.10
2019-01-12T07:16:47.892Z,1016.08
2019-01-12T07:17:47.908Z,1016.07
2019-01-12T07:18:47.870Z,1016.05
2019-01-12T07:19:47.860Z,1016.00
2019-01-12T07:20:47.846Z,1016.00
2019-01-12T07:21:47.837Z,1015.94
2019-01-12T07:22:47.848Z,1015.98
2019-01-12T07:23:47.814Z,1015.96
2019-01-12T07:24:47.803Z,1015.93
2019-01-12T07:25:47.792Z,1015.96
2019-01-12T07:26:47.780Z,1016.00
2019-01-12T07:27:47.792Z,1015.97
2019-01-12T07:28:47.758Z,1015.98
2019-01-12T07:29:47.746Z,1015.96
2019-01-12T07:30:47.735Z,1015.97
2019-01-12T07:31:47.725Z,1015.96
2019-01-12T07:32:47.741Z,1015.93
2019-01-12T07:33:47.702Z,1015.94
2019-01-12T07:34:47.692Z,1015.97
2019-01-12T07:35:47.681Z,1016.01
2019-01-12T07:36:47.668Z,1015.95
2019-01-12T07:37:47.680Z,1015.95
2019-01-12T07:38:47.647Z,1015.98
2019-01-12T07:39:47.634Z,1015.92
2019-01-12T07:40:47.624Z,1015.95
2019-01-12T07:41:47.611Z,1015.96
2019-01-12T07:42:47.606Z,1015.95
2019-01-12T07:43:47.613Z,1016.03
2019-01-12T07:44:47.580Z,1015.97
2019-01-12T07:45:47.570Z,1016.05
2019-01-12T07:46:47.556Z,1016.02
2019-01-12T07:47:47.546Z,1016.07
2019-01-12T07:48:47.557Z,1016.04
2019-01-12T07:49:47.524Z,1016.05
2019-01-12T07:50:47.510Z,1016.02
2019-01-12T07:51:47.500Z,1015.98
2019-01-12T07:52:47.492Z,1016.00
2019-01-12T07:53:47.501Z,1016.03
2019-01-12T07:54:47.947Z,1016.02
2019-01-12T07:55:47.455Z,1016.02
2019-01-12T07:56:47.442Z,1015.99
2019-01-12T07:57:47.434Z,1015.99
2019-01-12T07:58:47.445Z,1015.97
2019-01-12T07:59:47.411Z,1016.05
2019-01-12T08:00:47.399Z,1015.97
2019-01-12T08:01:47.387Z,1016.02
2019-01-12T08:02:47.378Z,1016.01
2019-01-12T08:03:47.388Z,1015.95
2019-01-12T08:04:47.356Z,1015.95
2019-01-12T08:05:47.343Z,1015.91
2019-01-12T08:06:47.331Z,1015.92
2019-01-12T08:07:47.322Z,1015.87
2019-01-12T08:08:47.333Z,1015.87
2019-01-12T08:09:47.299Z,1015.89
2019-01-12T08:10:47.288Z,1015.86
2019-01-12T08:11:47.278Z,1015.82
2019-01-12T08:12:47.267Z,1015.80
2019-01-12T08:13:47.277Z,1015.76
2019-01-12T08:14:47.242Z,1015.78
2019-01-12T08:15:47.233Z,1015.72
2019-01-12T08:16:47.222Z,1015.77
2019-01-12T08:17:47.208Z,1015.67
2019-01-12T08:18:47.222Z,1015.66
2019-01-12T08:19:47.185Z,1015.66
2019-01-12T08:20:47.176Z,1015.59
2019-01-12T08:21:47.164Z,1015.55
2019-01-12T08:22:47.153Z,1015.55
2019-01-12T08:23:47.166Z,1015.58
2019-01-12T08:24:47.130Z,1015.56
2019-01-12T08:25:47.120Z,1015.60
2019-01-12T08:26:47.108Z,1015.56
2019-01-12T08:27:47.096Z,1015.63
2019-01-12T08:28:47.111Z,1015.72
2019-01-12T08:29:47.075Z,1015.54
2019-01-12T08:30:47.064Z,1015.56
2019-01-12T08:31:47.055Z,1015.49
2019-01-12T08:32:47.040Z,1015.46
2019-01-12T08:33:47.053Z,1015.50
2019-01-12T08:34:47.020Z,1015.50
2019-01-12T08:35:47.006Z,1015.53
2019-01-12T08:36:46.995Z,1015.51
2019-01-12T08:37:46.985Z,1015.55
2019-01-12T08:38:46.999Z,1015.50
2019-01-12T08:39:46.961Z,1015.48
2019-01-12T08:40:46.955Z,1015.40
2019-01-12T08:41:46.939Z,1015.42
2019-01-12T08:42:46.928Z,1015.45
2019-01-12T08:43:46.921Z,1015.43
2019-01-12T08:44:46.930Z,1015.42
2019-01-12T08:45:46.895Z,1015.36
2019-01-12T08:46:46.884Z,1015.34
2019-01-12T08:47:46.876Z,1015.30
2019-01-12T08:48:46.863Z,1015.32
2019-01-12T08:49:46.874Z,1015.30
2019-01-12T08:50:46.839Z,1015.33
2019-01-12T08:51:46.828Z,1015.36
2019-01-12T08:52:46.820Z,1015.27
2019-01-12T08:53:46.805Z,1015.26
2019-01-12T08:54:46.824Z,1015.21
2019-01-12T08:55:46.787Z,1015.21
2019-01-12T08:56:46.776Z,1015.21
2019-01-12T08:57:46.761Z,1015.13
2019-01-12T08:58:46.749Z,1015.11
2019-01-12T08:59:46.761Z,1015.10
2019-01-12T09:00:46.727Z,1015.00
2019-01-12T09:01:46.717Z,1014.97
2019-01-12T09:02:46.709Z,1014.89
2019-01-12T09:03:46.692Z,1014.87
2019-01-12T09:04:46.705Z,1014.85
2019-01-12T09:05:46.672Z,1014.78
2019-01-12T09:06:46.663Z,1014.80
2019-01-12T09:07:46.655Z,1014.74
2019-01-12T09:08:46.638Z,1014.73
2019-01-12T09:09:46.647Z,1014.87
2019-01-12T09:10:46.616Z,1014.79
2019-01-12T09:11:46.602Z,1014.79
2019-01-12T09:12:46.595Z,1014.74
2019-01-12T09:13:46.581Z,1014.78
2019-01-12T09:14:46.591Z,1014.80
2019-01-12T09:15:46.556Z,1014.76
2019-01-12T09:16:46.546Z,1014.81
2019-01-12T09:17:46.539Z,1014.81
2019-01-12T09:18:46.522Z,1014.87
2019-01-12T09:19:46.535Z,1014.97
2019-01-12T09:20:46.500Z,1015.05
2019-01-12T09:21:46.489Z,1015.07
2019-01-12T09:22:46.481Z,1015.07
2019-01-12T09:23:46.471Z,1015.01
2019-01-12T09:24:46.479Z,1014.91
2019-01-12T09:25:46.445Z,1015.01
2019-01-12T09:26:46.433Z,1014.81
2019-01-12T09:27:46.426Z,1014.68
2019-01-12T09:28:46.414Z,1014.65
2019-01-12T09:29:46.423Z,1014.68
2019-01-12T09:30:48.636Z,1014.64
2019-01-12T09:31:46.379Z,1014.61
2019-01-12T09:32:46.369Z,1014.66
2019-01-12T09:33:46.355Z,1014.64
2019-01-12T09:34:46.345Z,1014.54
2019-01-12T09:35:46.368Z,1014.52
2019-01-12T09:36:46.321Z,1014.44
2019-01-12T09:37:46.309Z,1014.43
2019-01-12T09:38:46.301Z,1014.46
2019-01-12T09:39:46.291Z,1014.50
2019-01-12T09:40:46.302Z,1014.44
2019-01-12T09:41:46.273Z,1014.51
2019-01-12T09:42:46.254Z,1014.43
2019-01-12T09:43:46.244Z,1014.48
2019-01-12T09:44:46.233Z,1014.27
2019-01-12T09:45:46.245Z,1014.28
2019-01-12T09:46:46.210Z,1014.29
2019-01-12T09:47:46.200Z,1014.28
2019-01-12T09:48:46.187Z,1014.32
2019-01-12T09:49:46.176Z,1014.38
2019-01-12T09:50:46.189Z,1014.26
2019-01-12T09:51:46.153Z,1014.26
2019-01-12T09:52:46.143Z,1014.28
2019-01-12T09:53:46.131Z,1014.24
2019-01-12T09:54:46.120Z,1014.28
2019-01-12T09:55:46.132Z,1014.23
2019-01-12T09:56:51.677Z,1014.22
2019-01-12T09:57:47.087Z,1014.21
2019-01-12T09:58:46.075Z,1014.23
2019-01-12T09:59:46.065Z,1014.20
2019-01-12T10:00:46.077Z,1014.15
2019-01-12T10:01:46.041Z,1014.11
2019-01-12T10:02:46.029Z,1014.15
2019-01-12T10:03:46.018Z,1014.07
2019-01-12T10:04:46.009Z,1014.12
2019-01-12T10:05:46.022Z,1014.14
2019-01-12T10:06:45.985Z,1014.12
2019-01-12T10:07:45.974Z,1014.08
2019-01-12T10:08:45.964Z,1014.08
2019-01-12T10:09:45.952Z,1014.06
2019-01-12T10:10:45.964Z,1014.10
2019-01-12T10:11:45.928Z,1014.05
2019-01-12T10:12:45.918Z,1014.08
2019-01-12T10:13:45.907Z,1014.04
2019-01-12T10:14:45.896Z,1014.03
2019-01-12T10:15:45.909Z,1014.05
2019-01-12T10:16:45.872Z,1014.07
2019-01-12T10:17:45.863Z,1014.06
2019-01-12T10:18:45.854Z,1014.08
2019-01-12T10:19:45.840Z,1014.04
2019-01-12T10:20:45.868Z,1013.98
2019-01-12T10:21:45.819Z,1014.00
2019-01-12T10:22:45.808Z,1013.93
2019-01-12T10:23:45.794Z,1013.89
2019-01-12T10:24:45.851Z,1013.89
2019-01-12T10:25:45.796Z,1013.94
2019-01-12T10:26:45.761Z,1013.89
2019-01-12T10:27:45.750Z,1013.82
2019-01-12T10:28:45.737Z,1013.80
2019-01-12T10:29:45.727Z,1013.77
2019-01-12T10:30:45.717Z,1013.75
2019-01-12T10:31:45.727Z,1013.76
2019-01-12T10:32:45.692Z,1013.75
2019-01-12T10:33:45.683Z,1013.79
2019-01-12T10:34:45.670Z,1013.79
2019-01-12T10:35:45.661Z,1013.74
2019-01-12T10:36:45.671Z,1013.68
2019-01-12T10:37:45.639Z,1013.63
2019-01-12T10:38:45.626Z,1013.62
2019-01-12T10:39:45.615Z,1013.60
2019-01-12T10:40:45.603Z,1013.59
2019-01-12T10:41:45.615Z,1013.51
2019-01-12T10:42:45.581Z,1013.52
2019-01-12T10:43:45.569Z,1013.50
2019-01-12T10:44:45.558Z,1013.53
2019-01-12T10:45:45.548Z,1013.53
2019-01-12T10:46:45.560Z,1013.48
2019-01-12T10:47:45.530Z,1013.42
2019-01-12T10:48:45.515Z,1013.42
2019-01-12T10:49:45.623Z,1013.35
2019-01-12T10:50:45.493Z,1013.25
2019-01-12T10:51:45.502Z,1013.25
2019-01-12T10:52:45.468Z,1013.24
2019-01-12T10:53:45.455Z,1013.30
2019-01-12T10:54:45.481Z,1013.25
2019-01-12T10:55:45.452Z,1013.35
2019-01-12T10:56:45.447Z,1013.29
2019-01-12T10:57:45.411Z,1013.29
2019-01-12T10:58:45.400Z,1013.21
2019-01-12T10:59:45.389Z,1013.23
2019-01-12T11:00:45.380Z,1013.22
2019-01-12T11:01:45.391Z,1013.17
2019-01-12T11:02:45.358Z,1013.24
2019-01-12T11:03:45.346Z,1013.18
2019-01-12T11:04:45.331Z,1013.14
2019-01-12T11:05:45.321Z,1013.10
2019-01-12T11:06:45.337Z,1013.19
2019-01-12T11:07:45.299Z,1013.07
2019-01-12T11:08:45.288Z,1013.12
2019-01-12T11:09:45.275Z,1013.06
2019-01-12T11:10:45.265Z,1013.04
2019-01-12T11:11:45.258Z,1013.11
2019-01-12T11:12:45.402Z,1013.08
2019-01-12T11:13:45.231Z,1013.07
2019-01-12T11:14:45.221Z,1013.15
2019-01-12T11:15:45.211Z,1013.07
2019-01-12T11:16:45.208Z,1013.08
2019-01-12T11:17:45.319Z,1013.12
2019-01-12T11:18:45.177Z,1013.08
2019-01-12T11:19:45.167Z,1013.06
2019-01-12T11:20:45.155Z,1013.05
2019-01-12T11:21:45.147Z,1012.99
2019-01-12T11:22:45.157Z,1013.05
2019-01-12T11:23:45.119Z,1013.02
2019-01-12T11:24:45.114Z,1013.01
2019-01-12T11:25:45.098Z,1012.97
2019-01-12T11:26:45.091Z,1012.98
2019-01-12T11:27:45.120Z,1012.99
2019-01-12T11:28:45.064Z,1012.95
2019-01-12T11:29:45.054Z,1012.92
2019-01-12T11:30:45.042Z,1012.97
2019-01-12T11:31:45.034Z,1013.02
2019-01-12T11:32:45.042Z,1012.97
2019-01-12T11:33:45.009Z,1012.97
2019-01-12T11:34:44.998Z,1012.91
2019-01-12T11:35:44.985Z,1012.92
2019-01-12T11:36:44.974Z,1012.85
2019-01-12T11:37:44.986Z,1012.79
2019-01-12T11:38:44.953Z,1012.79
2019-01-12T11:39:44.946Z,1012.73
2019-01-12T11:40:44.933Z,1012.63
2019-01-12T11:41:44.919Z,1012.67
2019-01-12T11:42:44.999Z,1012.62
2019-01-12T11:43:44.896Z,1012.65
2019-01-12T11:44:44.885Z,1012.67
2019-01-12T11:45:44.952Z,1012.59
2019-01-12T11:46:44.863Z,1012.60
2019-01-12T11:47:44.875Z,1012.49
2019-01-12T11:48:44.842Z,1012.50
2019-01-12T11:49:44.829Z,1012.50
2019-01-12T11:50:44.817Z,1012.47
2019-01-12T11:51:44.806Z,1012.43
2019-01-12T11:52:44.820Z,1012.45
2019-01-12T11:53:44.784Z,1012.38
2019-01-12T11:54:44.773Z,1012.34
2019-01-12T11:55:44.761Z,1012.36
2019-01-12T11:56:44.750Z,1012.32
2019-01-12T11:57:44.767Z,1012.31
2019-01-12T11:58:44.727Z,1012.25
2019-01-12T11:59:44.717Z,1012.29
2019-01-12T12:00:44.708Z,1012.27
2019-01-12T12:01:44.695Z,1012.31
2019-01-12T12:02:44.706Z,1012.27
2019-01-12T12:03:44.672Z,1012.26
2019-01-12T12:04:44.662Z,1012.27
2019-01-12T12:05:44.651Z,1012.24